createdAt,value
2019-05-16T00:03:27.979Z,15.15
2019-05-16T00:07:35.497Z,15.07
2019-05-16T00:11:43.853Z,15.24
2019-05-16T00:15:52.120Z,15.00
2019-05-16T00:20:00.693Z,15.22
2019-05-16T00:24:08.664Z,14.99
2019-05-16T00:28:18.143Z,15.01
2019-05-16T00:32:28.170Z,14.93
2019-05-16T00:36:38.164Z,14.90
2019-05-16T00:40:45.862Z,15.07
2019-05-16T00:44:53.661Z,15.14
2019-05-16T00:49:01.925Z,15.10
2019-05-16T00:53:10.305Z,15.41
2019-05-16T00:57:18.915Z,15.42
2019-05-16T01:01:28.263Z,15.33
2019-05-16T01:05:38.748Z,15.49
2019-05-16T01:09:45.838Z,15.19
2019-05-16T01:13:54.311Z,14.96
2019-05-16T01:18:02.070Z,15.11
2019-05-16T01:22:09.911Z,14.92
2019-05-16T01:26:18.696Z,15.03
2019-05-16T01:30:28.667Z,14.88
2019-05-16T01:34:37.818Z,14.91
2019-05-16T01:38:48.099Z,14.82
2019-05-16T01:42:57.775Z,14.73
2019-05-16T01:47:05.357Z,14.63
2019-05-16T01:51:13.803Z,14.70
2019-05-16T01:55:21.484Z,14.87
2019-05-16T01:59:29.658Z,14.76
2019-05-16T02:03:38.737Z,14.72
2019-05-16T02:07:48.016Z,14.57
2019-05-16T02:11:58.761Z,14.46
2019-05-16T02:16:08.239Z,14.54
2019-05-16T02:20:17.972Z,14.67
2019-05-16T02:24:28.347Z,14.69
2019-05-16T02:28:40.107Z,14.71
2019-05-16T02:32:45.714Z,14.78
2019-05-16T02:37:11.995Z,14.76
2019-05-16T02:41:03.651Z,14.70
2019-05-16T02:45:13.502Z,14.73
2019-05-16T02:49:21.751Z,14.92
2019-05-16T02:53:31.004Z,14.62
2019-05-16T02:57:41.447Z,14.95
2019-05-16T03:01:52.113Z,15.12
2019-05-16T03:06:01.460Z,14.67
2019-05-16T03:10:11.204Z,14.82
2019-05-16T03:14:21.260Z,14.81
2019-05-16T03:18:31.246Z,14.75
2019-05-16T03:22:41.226Z,14.79
2019-05-16T03:26:51.441Z,14.78
2019-05-16T03:31:05.073Z,14.71
2019-05-16T03:35:14.959Z,14.79
2019-05-16T03:39:21.241Z,14.86
2019-05-16T03:43:31.010Z,14.81
2019-05-16T03:47:42.239Z,14.87
2019-05-16T03:51:50.575Z,14.81
2019-05-16T03:56:01.572Z,14.74
2019-05-16T04:00:11.374Z,15.04
2019-05-16T04:04:20.649Z,15.05
2019-05-16T04:08:30.685Z,15.10
2019-05-16T04:12:37.297Z,15.22
2019-05-16T04:16:45.502Z,15.42
2019-05-16T04:20:53.647Z,15.50
2019-05-16T04:25:02.254Z,15.44
2019-05-16T04:29:11.932Z,15.47
2019-05-16T04:33:21.906Z,15.75
2019-05-16T04:37:31.371Z,15.87
2019-05-16T04:41:40.916Z,15.96
2019-05-16T04:45:52.129Z,15.98
2019-05-16T04:50:01.681Z,16.10
2019-05-16T04:54:11.478Z,16.05
2019-05-16T04:58:22.556Z,16.15
2019-05-16T05:02:30.769Z,16.14
2019-05-16T05:06:40.385Z,16.16
2019-05-16T05:10:47.162Z,16.30
2019-05-16T05:14:55.226Z,16.32
2019-05-16T05:19:02.846Z,16.33
2019-05-16T05:23:11.059Z,16.31
2019-05-16T05:27:19.764Z,16.44
2019-05-16T05:31:34.414Z,16.39
2019-05-16T05:35:40.702Z,16.12
2019-05-16T05:39:47.536Z,16.24
2019-05-16T05:43:56.231Z,16.35
2019-05-16T05:48:04.488Z,16.36
2019-05-16T05:52:12.864Z,16.46
2019-05-16T05:56:21.053Z,16.45
2019-05-16T06:00:30.345Z,16.40
2019-05-16T06:04:39.592Z,16.38
2019-05-16T06:08:50.009Z,16.43
2019-05-16T06:12:57.061Z,16.52
2019-05-16T06:17:05.392Z,16.78
2019-05-16T06:21:13.797Z,16.83
2019-05-16T06:25:22.885Z,17.03
2019-05-16T06:29:31.365Z,17.18
2019-05-16T06:33:41.127Z,17.39
2019-05-16T06:37:49.943Z,17.26
2019-05-16T06:42:00.413Z,17.16
2019-05-16T06:46:07.966Z,17.20
2019-05-16T06:50:15.798Z,17.31
2019-05-16T06:54:24.091Z,17.34
2019-05-16T06:58:43.696Z,17.47
2019-05-16T07:02:41.222Z,17.34
2019-05-16T07:06:58.599Z,17.51
2019-05-16T07:11:00.033Z,17.42
2019-05-16T07:15:12.400Z,17.55
2019-05-16T07:19:20.768Z,17.65
2019-05-16T07:23:29.906Z,17.57
2019-05-16T07:27:40.114Z,17.76
2019-05-16T07:31:47.886Z,17.51
2019-05-16T07:35:56.230Z,17.51
2019-05-16T07:40:16.285Z,17.36
2019-05-16T07:44:14.219Z,17.35
2019-05-16T07:48:22.428Z,17.16
2019-05-16T07:52:35.858Z,17.29
2019-05-16T07:56:40.851Z,17.52
2019-05-16T08:00:58.298Z,17.64
2019-05-16T08:05:00.877Z,17.50
2019-05-16T08:09:12.470Z,17.85
2019-05-16T08:13:21.284Z,18.18
2019-05-16T08:17:31.373Z,18.99
2019-05-16T08:21:41.167Z,19.61
2019-05-16T08:25:50.769Z,20.04
2019-05-16T08:30:02.106Z,21.01
2019-05-16T08:34:11.674Z,22.57
2019-05-16T08:38:21.118Z,22.47
2019-05-16T08:42:27.683Z,21.77
2019-05-16T08:46:35.900Z,21.16
2019-05-16T08:50:50.315Z,20.86
2019-05-16T08:54:53.569Z,21.17
2019-05-16T08:59:03.460Z,21.96
2019-05-16T09:03:12.299Z,21.93
2019-05-16T09:07:22.734Z,21.61
2019-05-16T09:11:44.921Z,21.50
2019-05-16T09:15:41.721Z,21.85
2019-05-16T09:19:50.296Z,23.25
2019-05-16T09:23:58.217Z,23.49
2019-05-16T09:28:07.436Z,23.73
2019-05-16T09:32:27.023Z,26.49
2019-05-16T09:36:28.100Z,27.19
2019-05-16T09:40:38.700Z,27.19
2019-05-16T09:44:47.561Z,28.11
2019-05-16T09:49:13.065Z,27.00
2019-05-16T09:53:07.247Z,25.02
2019-05-16T09:57:17.446Z,24.14
2019-05-16T10:01:27.627Z,24.34
2019-05-16T10:05:37.215Z,25.77
2019-05-16T10:09:50.024Z,26.72
2019-05-16T10:13:56.164Z,26.85
2019-05-16T10:18:07.355Z,26.49
2019-05-16T10:22:17.052Z,26.77
2019-05-16T10:26:27.715Z,26.77
2019-05-16T10:30:34.875Z,26.85
2019-05-16T10:34:42.900Z,28.78
2019-05-16T10:38:51.032Z,29.19
2019-05-16T10:42:59.244Z,27.60
2019-05-16T10:47:07.709Z,28.37
2019-05-16T10:51:17.102Z,30.15
2019-05-16T10:55:27.634Z,31.55
2019-05-16T10:59:57.730Z,31.47
2019-05-16T11:03:44.322Z,31.68
2019-05-16T11:07:53.476Z,31.86
2019-05-16T11:12:01.270Z,32.88
2019-05-16T11:16:09.516Z,32.79
2019-05-16T11:20:20.579Z,32.75
2019-05-16T11:24:29.727Z,32.22
2019-05-16T11:28:37.259Z,32.80
2019-05-16T11:32:46.981Z,32.59
2019-05-16T11:36:57.010Z,31.95
2019-05-16T11:41:07.220Z,32.50
2019-05-16T11:45:16.537Z,31.67
2019-05-16T11:49:24.585Z,30.08
2019-05-16T11:53:32.259Z,30.14
2019-05-16T11:57:39.971Z,29.93
2019-05-16T12:01:48.005Z,30.50
2019-05-16T12:05:58.015Z,30.03
2019-05-16T12:10:07.619Z,30.65
2019-05-16T12:14:16.598Z,30.11
2019-05-16T12:18:26.582Z,28.62
2019-05-16T12:22:37.487Z,27.20
2019-05-16T12:26:44.240Z,25.62
2019-05-16T12:30:52.318Z,25.22
2019-05-16T12:35:00.233Z,25.64
2019-05-16T12:39:09.157Z,25.76
2019-05-16T12:43:18.204Z,24.97
2019-05-16T12:47:26.348Z,24.41
2019-05-16T12:51:36.927Z,24.41
2019-05-16T12:55:44.335Z,24.43
2019-05-16T12:59:52.751Z,23.49
2019-05-16T13:04:00.769Z,23.49
2019-05-16T13:08:08.421Z,23.54
2019-05-16T13:12:17.540Z,23.85
2019-05-16T13:16:28.080Z,23.72
2019-05-16T13:20:39.228Z,23.60
2019-05-16T13:24:47.925Z,23.71
2019-05-16T13:28:57.839Z,22.65
2019-05-16T13:33:07.001Z,22.82
2019-05-16T13:37:17.612Z,22.48
2019-05-16T13:41:26.838Z,22.01
2019-05-16T13:45:33.883Z,22.05
2019-05-16T13:49:41.818Z,21.85
2019-05-16T13:53:49.530Z,22.07
2019-05-16T13:57:57.654Z,22.35
2019-05-16T14:02:07.792Z,22.66
2019-05-16T14:06:18.051Z,22.54
2019-05-16T14:10:29.785Z,22.31
2019-05-16T14:14:41.908Z,21.32
2019-05-16T14:18:47.025Z,21.20
2019-05-16T14:22:57.166Z,21.23
2019-05-16T14:27:06.464Z,21.39
2019-05-16T14:31:14.310Z,21.14
2019-05-16T14:35:21.999Z,21.08
2019-05-16T14:39:29.881Z,20.83
2019-05-16T14:43:37.885Z,20.34
2019-05-16T14:47:47.586Z,20.24
2019-05-16T14:51:57.870Z,20.21
2019-05-16T14:56:07.029Z,20.16
2019-05-16T15:00:18.300Z,19.96
2019-05-16T15:04:29.824Z,19.90
2019-05-16T15:08:34.905Z,19.84
2019-05-16T15:12:42.890Z,19.66
2019-05-16T15:16:51.994Z,19.68
2019-05-16T15:20:59.662Z,19.46
2019-05-16T15:25:08.520Z,19.36
2019-05-16T15:29:17.592Z,19.37
2019-05-16T15:33:27.326Z,19.24
2019-05-16T15:37:37.274Z,19.30
2019-05-16T15:41:45.284Z,19.16
2019-05-16T15:45:53.504Z,19.10
2019-05-16T15:50:01.488Z,19.04
2019-05-16T15:54:09.376Z,18.90
2019-05-16T15:58:18.369Z,18.88
2019-05-16T16:02:27.181Z,18.95
2019-05-16T16:06:37.783Z,18.85
2019-05-16T16:10:47.786Z,18.79
2019-05-16T16:14:57.354Z,18.76
2019-05-16T16:19:06.554Z,18.56
2019-05-16T16:23:17.527Z,18.44
2019-05-16T16:27:24.057Z,18.42
2019-05-16T16:31:32.088Z,18.28
2019-05-16T16:35:39.572Z,18.18
2019-05-16T16:39:47.580Z,18.16
2019-05-16T16:43:57.093Z,18.12
2019-05-16T16:48:04.672Z,18.02
2019-05-16T16:52:12.673Z,17.99
2019-05-16T16:56:20.665Z,17.84
2019-05-16T17:00:28.627Z,17.94
2019-05-16T17:04:38.870Z,17.91
2019-05-16T17:08:47.455Z,18.16
2019-05-16T17:12:57.585Z,17.98
2019-05-16T17:17:07.089Z,18.09
2019-05-16T17:21:17.087Z,18.10
2019-05-16T17:25:26.912Z,18.10
2019-05-16T17:29:36.876Z,17.76
2019-05-16T17:33:45.207Z,17.54
2019-05-16T17:37:52.803Z,17.58
2019-05-16T17:42:01.624Z,17.63
2019-05-16T17:46:09.847Z,17.68
2019-05-16T17:50:18.674Z,17.37
2019-05-16T17:54:26.796Z,16.99
2019-05-16T17:58:35.223Z,16.99
2019-05-16T18:02:43.473Z,16.81
2019-05-16T18:06:51.501Z,16.94
2019-05-16T18:10:59.551Z,16.94
2019-05-16T18:15:08.503Z,16.85
2019-05-16T18:19:17.371Z,16.85
2019-05-16T18:23:27.484Z,16.80
2019-05-16T18:27:37.419Z,16.85
2019-05-16T18:31:47.124Z,16.66
2019-05-16T18:35:57.808Z,16.77
2019-05-16T18:40:07.266Z,16.65
2019-05-16T18:44:16.695Z,16.31
2019-05-16T18:48:27.015Z,16.01
2019-05-16T18:52:37.252Z,15.83
2019-05-16T18:56:43.967Z,16.03
2019-05-16T19:00:52.745Z,16.29
2019-05-16T19:05:00.891Z,15.96
2019-05-16T19:09:08.972Z,15.60
2019-05-16T19:13:17.219Z,15.71
2019-05-16T19:17:27.498Z,16.05
2019-05-16T19:21:36.839Z,15.76
2019-05-16T19:25:47.385Z,15.40
2019-05-16T19:29:56.823Z,15.30
2019-05-16T19:34:06.998Z,15.61
2019-05-16T19:38:16.916Z,15.44
2019-05-16T19:42:26.664Z,15.26
2019-05-16T19:46:35.461Z,15.29
2019-05-16T19:50:46.237Z,15.23
2019-05-16T19:54:53.627Z,15.24
2019-05-16T19:59:02.170Z,15.29
2019-05-16T20:03:12.931Z,15.25
2019-05-16T20:07:20.674Z,15.25
2019-05-16T20:11:28.656Z,15.18
2019-05-16T20:15:37.229Z,15.21
2019-05-16T20:19:46.971Z,15.24
2019-05-16T20:23:56.769Z,15.20
2019-05-16T20:28:08.578Z,15.50
2019-05-16T20:32:16.706Z,15.29
2019-05-16T20:36:26.316Z,15.44
2019-05-16T20:40:33.166Z,15.58
2019-05-16T20:44:41.588Z,15.64
2019-05-16T20:48:49.501Z,15.69
2019-05-16T20:52:59.109Z,15.79
2019-05-16T20:57:07.263Z,15.66
2019-05-16T21:01:17.297Z,15.80
2019-05-16T21:05:26.840Z,15.65
2019-05-16T21:09:36.894Z,15.78
2019-05-16T21:13:46.911Z,15.67
2019-05-16T21:17:56.747Z,15.60
2019-05-16T21:22:07.142Z,15.78
2019-05-16T21:26:14.877Z,15.54
2019-05-16T21:30:23.762Z,15.45
2019-05-16T21:34:31.827Z,15.56
2019-05-16T21:38:40.302Z,15.50
2019-05-16T21:42:48.144Z,15.65
2019-05-16T21:46:56.498Z,15.45
2019-05-16T21:51:07.842Z,15.59
2019-05-16T21:55:17.505Z,15.50
2019-05-16T21:59:28.497Z,15.71
2019-05-16T22:03:36.727Z,15.73
2019-05-16T22:07:47.169Z,15.42
2019-05-16T22:11:57.377Z,15.14
2019-05-16T22:16:08.070Z,15.10
2019-05-16T22:20:16.817Z,15.02
2019-05-16T22:24:26.501Z,14.92
2019-05-16T22:28:34.713Z,14.86
2019-05-16T22:32:47.029Z,14.86
2019-05-16T22:36:57.301Z,14.96
2019-05-16T22:41:06.985Z,14.95
2019-05-16T22:45:17.614Z,14.68
2019-05-16T22:49:27.513Z,14.50
2019-05-16T22:53:36.875Z,14.51
2019-05-16T22:57:47.268Z,14.72
2019-05-16T23:01:56.966Z,14.50
2019-05-16T23:06:07.573Z,14.40
2019-05-16T23:10:16.655Z,14.48
2019-05-16T23:14:26.392Z,14.37
2019-05-16T23:18:34.571Z,14.31
2019-05-16T23:22:42.073Z,14.46
2019-05-16T23:26:49.789Z,14.40
2019-05-16T23:30:57.982Z,14.74
2019-05-16T23:35:06.869Z,14.65
2019-05-16T23:39:14.666Z,14.79
2019-05-16T23:43:22.658Z,14.97
2019-05-16T23:47:30.238Z,15.11
2019-05-16T23:51:38.616Z,14.97
2019-05-16T23:55:47.218Z,15.15
2019-05-16T23:59:56.766Z,14.99
